sensor_id;sensor_type;location;lat;lon;timestamp;P1;durP1;ratioP1;P2;durP2;ratioP2
12869;SDS011;6503;48.572;13.460;2023-02-25T00:01:32;17.50;;;7.95;;
12869;SDS011;6503;48.572;13.460;2023-02-25T00:04:01;12.93;;;5.28;;
12869;SDS011;6503;48.572;13.460;2023-02-25T00:06:29;13.50;;;5.40;;
12869;SDS011;6503;48.572;13.460;2023-02-25T00:08:55;9.80;;;4.63;;
12869;SDS011;6503;48.572;13.460;2023-02-25T00:11:23;9.75;;;4.28;;
12869;SDS011;6503;48.572;13.460;2023-02-25T00:13:51;8.75;;;3.30;;
12869;SDS011;6503;48.572;13.460;2023-02-25T00:16:19;8.55;;;3.88;;
12869;SDS011;6503;48.572;13.460;2023-02-25T00:18:51;10.40;;;4.18;;
12869;SDS011;6503;48.572;13.460;2023-02-25T00:21:20;10.57;;;4.13;;
12869;SDS011;6503;48.572;13.460;2023-02-25T00:23:48;10.43;;;3.65;;
12869;SDS011;6503;48.572;13.460;2023-02-25T00:26:17;10.68;;;4.18;;
12869;SDS011;6503;48.572;13.460;2023-02-25T00:28:45;6.93;;;3.53;;
12869;SDS011;6503;48.572;13.460;2023-02-25T00:31:13;9.77;;;3.60;;
12869;SDS011;6503;48.572;13.460;2023-02-25T00:33:41;7.80;;;2.67;;
12869;SDS011;6503;48.572;13.460;2023-02-25T00:36:10;8.43;;;2.72;;
12869;SDS011;6503;48.572;13.460;2023-02-25T00:38:45;7.95;;;3.25;;
12869;SDS011;6503;48.572;13.460;2023-02-25T00:41:13;5.25;;;2.65;;
12869;SDS011;6503;48.572;13.460;2023-02-25T00:43:41;6.15;;;2.30;;
12869;SDS011;6503;48.572;13.460;2023-02-25T00:46:10;6.57;;;3.10;;
12869;SDS011;6503;48.572;13.460;2023-02-25T00:48:37;3.90;;;1.77;;
12869;SDS011;6503;48.572;13.460;2023-02-25T00:51:06;5.55;;;1.67;;
12869;SDS011;6503;48.572;13.460;2023-02-25T00:53:34;4.90;;;1.88;;
12869;SDS011;6503;48.572;13.460;2023-02-25T00:56:05;4.00;;;1.38;;
12869;SDS011;6503;48.572;13.460;2023-02-25T00:58:34;2.22;;;1.13;;
12869;SDS011;6503;48.572;13.460;2023-02-25T01:01:02;3.15;;;0.82;;
12869;SDS011;6503;48.572;13.460;2023-02-25T01:03:30;2.50;;;0.98;;
12869;SDS011;6503;48.572;13.460;2023-02-25T01:05:57;2.08;;;1.35;;
12869;SDS011;6503;48.572;13.460;2023-02-25T01:08:24;2.25;;;1.13;;
12869;SDS011;6503;48.572;13.460;2023-02-25T01:10:51;2.85;;;1.15;;
12869;SDS011;6503;48.572;13.460;2023-02-25T01:13:20;2.38;;;1.33;;
12869;SDS011;6503;48.572;13.460;2023-02-25T01:15:47;3.70;;;1.70;;
12869;SDS011;6503;48.572;13.460;2023-02-25T01:18:14;6.78;;;1.90;;
12869;SDS011;6503;48.572;13.460;2023-02-25T01:20:42;4.10;;;1.85;;
12869;SDS011;6503;48.572;13.460;2023-02-25T01:23:09;4.07;;;1.73;;
12869;SDS011;6503;48.572;13.460;2023-02-25T01:25:38;4.30;;;2.20;;
12869;SDS011;6503;48.572;13.460;2023-02-25T01:28:06;4.00;;;1.83;;
12869;SDS011;6503;48.572;13.460;2023-02-25T01:30:35;3.83;;;1.45;;
12869;SDS011;6503;48.572;13.460;2023-02-25T01:33:02;3.72;;;1.67;;
12869;SDS011;6503;48.572;13.460;2023-02-25T01:35:30;2.95;;;1.55;;
12869;SDS011;6503;48.572;13.460;2023-02-25T01:37:57;2.85;;;1.40;;
12869;SDS011;6503;48.572;13.460;2023-02-25T01:40:28;3.90;;;1.80;;
12869;SDS011;6503;48.572;13.460;2023-02-25T01:42:56;2.90;;;1.50;;
12869;SDS011;6503;48.572;13.460;2023-02-25T01:45:25;3.08;;;1.48;;
12869;SDS011;6503;48.572;13.460;2023-02-25T01:47:57;5.18;;;1.80;;
12869;SDS011;6503;48.572;13.460;2023-02-25T01:50:36;3.38;;;1.75;;
12869;SDS011;6503;48.572;13.460;2023-02-25T01:53:08;3.78;;;2.00;;
12869;SDS011;6503;48.572;13.460;2023-02-25T01:55:35;4.57;;;2.58;;
12869;SDS011;6503;48.572;13.460;2023-02-25T02:00:34;5.72;;;2.33;;
12869;SDS011;6503;48.572;13.460;2023-02-25T02:03:04;3.90;;;1.90;;
12869;SDS011;6503;48.572;13.460;2023-02-25T02:05:48;3.22;;;1.67;;
12869;SDS011;6503;48.572;13.460;2023-02-25T02:08:21;3.72;;;1.50;;
12869;SDS011;6503;48.572;13.460;2023-02-25T02:10:50;4.85;;;2.00;;
12869;SDS011;6503;48.572;13.460;2023-02-25T02:13:17;4.72;;;2.03;;
12869;SDS011;6503;48.572;13.460;2023-02-25T02:15:46;4.60;;;2.15;;
12869;SDS011;6503;48.572;13.460;2023-02-25T02:18:22;5.30;;;2.60;;
12869;SDS011;6503;48.572;13.460;2023-02-25T02:20:55;5.65;;;2.50;;
12869;SDS011;6503;48.572;13.460;2023-02-25T02:26:42;4.13;;;2.10;;
12869;SDS011;6503;48.572;13.460;2023-02-25T02:29:35;6.90;;;2.55;;
12869;SDS011;6503;48.572;13.460;2023-02-25T02:32:26;6.68;;;3.13;;
12869;SDS011;6503;48.572;13.460;2023-02-25T02:35:01;5.85;;;3.20;;
12869;SDS011;6503;48.572;13.460;2023-02-25T02:37:37;7.82;;;3.38;;
12869;SDS011;6503;48.572;13.460;2023-02-25T02:40:15;6.03;;;3.00;;
12869;SDS011;6503;48.572;13.460;2023-02-25T02:42:55;7.65;;;3.50;;
12869;SDS011;6503;48.572;13.460;2023-02-25T02:45:35;8.07;;;3.45;;
12869;SDS011;6503;48.572;13.460;2023-02-25T02:48:08;5.13;;;3.22;;
12869;SDS011;6503;48.572;13.460;2023-02-25T02:50:39;6.57;;;3.42;;
12869;SDS011;6503;48.572;13.460;2023-02-25T02:53:12;6.75;;;3.20;;
12869;SDS011;6503;48.572;13.460;2023-02-25T02:55:43;6.03;;;3.90;;
12869;SDS011;6503;48.572;13.460;2023-02-25T02:58:14;7.00;;;3.53;;
12869;SDS011;6503;48.572;13.460;2023-02-25T03:00:47;5.13;;;3.78;;
12869;SDS011;6503;48.572;13.460;2023-02-25T03:03:21;7.45;;;3.88;;
12869;SDS011;6503;48.572;13.460;2023-02-25T03:06:00;6.85;;;3.55;;
12869;SDS011;6503;48.572;13.460;2023-02-25T03:08:29;6.17;;;3.80;;
12869;SDS011;6503;48.572;13.460;2023-02-25T03:10:59;6.57;;;3.55;;
12869;SDS011;6503;48.572;13.460;2023-02-25T03:13:26;7.07;;;3.40;;
12869;SDS011;6503;48.572;13.460;2023-02-25T03:15:53;7.95;;;4.35;;
12869;SDS011;6503;48.572;13.460;2023-02-25T03:18:26;7.68;;;3.35;;
12869;SDS011;6503;48.572;13.460;2023-02-25T03:20:58;6.95;;;3.42;;
12869;SDS011;6503;48.572;13.460;2023-02-25T03:23:27;6.70;;;3.78;;
12869;SDS011;6503;48.572;13.460;2023-02-25T03:28:32;7.10;;;3.70;;
12869;SDS011;6503;48.572;13.460;2023-02-25T03:31:00;7.95;;;4.13;;
12869;SDS011;6503;48.572;13.460;2023-02-25T03:33:33;7.07;;;3.70;;
12869;SDS011;6503;48.572;13.460;2023-02-25T03:36:06;5.55;;;3.30;;
12869;SDS011;6503;48.572;13.460;2023-02-25T03:38:40;6.55;;;3.67;;
12869;SDS011;6503;48.572;13.460;2023-02-25T03:41:12;5.53;;;3.30;;
12869;SDS011;6503;48.572;13.460;2023-02-25T03:43:43;7.47;;;2.90;;
12869;SDS011;6503;48.572;13.460;2023-02-25T03:46:12;5.20;;;3.42;;
12869;SDS011;6503;48.572;13.460;2023-02-25T03:48:42;5.55;;;3.25;;
12869;SDS011;6503;48.572;13.460;2023-02-25T03:51:11;4.70;;;3.33;;
12869;SDS011;6503;48.572;13.460;2023-02-25T03:53:45;4.75;;;2.75;;
12869;SDS011;6503;48.572;13.460;2023-02-25T03:56:12;5.60;;;3.17;;
12869;SDS011;6503;48.572;13.460;2023-02-25T03:58:39;4.97;;;2.95;;
12869;SDS011;6503;48.572;13.460;2023-02-25T04:01:08;4.38;;;2.42;;
12869;SDS011;6503;48.572;13.460;2023-02-25T04:03:39;3.05;;;1.80;;
12869;SDS011;6503;48.572;13.460;2023-02-25T04:06:08;4.75;;;2.30;;
12869;SDS011;6503;48.572;13.460;2023-02-25T04:08:36;3.88;;;1.83;;
12869;SDS011;6503;48.572;13.460;2023-02-25T04:11:03;3.00;;;1.73;;
12869;SDS011;6503;48.572;13.460;2023-02-25T04:13:30;5.55;;;1.35;;
12869;SDS011;6503;48.572;13.460;2023-02-25T04:15:58;2.75;;;1.95;;
12869;SDS011;6503;48.572;13.460;2023-02-25T04:18:27;2.22;;;1.60;;
12869;SDS011;6503;48.572;13.460;2023-02-25T04:20:54;2.40;;;0.90;;
12869;SDS011;6503;48.572;13.460;2023-02-25T04:23:23;2.20;;;1.60;;
12869;SDS011;6503;48.572;13.460;2023-02-25T04:25:50;2.75;;;1.60;;
12869;SDS011;6503;48.572;13.460;2023-02-25T04:28:18;3.95;;;1.50;;
12869;SDS011;6503;48.572;13.460;2023-02-25T04:30:45;3.47;;;1.55;;
12869;SDS011;6503;48.572;13.460;2023-02-25T04:33:12;3.40;;;1.55;;
12869;SDS011;6503;48.572;13.460;2023-02-25T04:35:39;5.32;;;1.65;;
12869;SDS011;6503;48.572;13.460;2023-02-25T04:38:06;2.17;;;1.27;;
12869;SDS011;6503;48.572;13.460;2023-02-25T04:40:35;5.43;;;2.00;;
12869;SDS011;6503;48.572;13.460;2023-02-25T04:43:02;3.28;;;1.40;;
12869;SDS011;6503;48.572;13.460;2023-02-25T04:45:29;3.50;;;1.40;;
12869;SDS011;6503;48.572;13.460;2023-02-25T04:48:00;5.55;;;1.45;;
12869;SDS011;6503;48.572;13.460;2023-02-25T04:50:27;3.33;;;1.27;;
12869;SDS011;6503;48.572;13.460;2023-02-25T04:52:55;2.65;;;1.63;;
12869;SDS011;6503;48.572;13.460;2023-02-25T04:55:22;3.10;;;1.50;;
12869;SDS011;6503;48.572;13.460;2023-02-25T04:57:51;3.35;;;1.48;;
12869;SDS011;6503;48.572;13.460;2023-02-25T05:00:19;4.00;;;1.73;;
12869;SDS011;6503;48.572;13.460;2023-02-25T05:02:48;3.45;;;2.00;;
12869;SDS011;6503;48.572;13.460;2023-02-25T05:05:15;4.13;;;1.30;;
12869;SDS011;6503;48.572;13.460;2023-02-25T05:07:43;1.83;;;1.20;;
12869;SDS011;6503;48.572;13.460;2023-02-25T05:10:12;2.78;;;1.50;;
12869;SDS011;6503;48.572;13.460;2023-02-25T05:12:39;2.35;;;1.08;;
12869;SDS011;6503;48.572;13.460;2023-02-25T05:15:09;2.67;;;1.50;;
12869;SDS011;6503;48.572;13.460;2023-02-25T05:17:37;3.90;;;1.35;;
12869;SDS011;6503;48.572;13.460;2023-02-25T05:20:04;4.30;;;2.05;;
12869;SDS011;6503;48.572;13.460;2023-02-25T05:22:36;3.45;;;1.85;;
12869;SDS011;6503;48.572;13.460;2023-02-25T05:25:04;3.38;;;1.77;;
12869;SDS011;6503;48.572;13.460;2023-02-25T05:27:31;4.88;;;2.17;;
12869;SDS011;6503;48.572;13.460;2023-02-25T05:29:59;4.88;;;2.35;;
12869;SDS011;6503;48.572;13.460;2023-02-25T05:32:27;7.60;;;2.65;;
12869;SDS011;6503;48.572;13.460;2023-02-25T05:34:56;3.50;;;2.10;;
12869;SDS011;6503;48.572;13.460;2023-02-25T05:37:24;4.20;;;2.50;;
12869;SDS011;6503;48.572;13.460;2023-02-25T05:39:51;5.40;;;2.88;;
12869;SDS011;6503;48.572;13.460;2023-02-25T05:42:18;4.55;;;2.70;;
12869;SDS011;6503;48.572;13.460;2023-02-25T05:44:45;4.47;;;2.50;;
12869;SDS011;6503;48.572;13.460;2023-02-25T05:47:13;5.78;;;2.90;;
12869;SDS011;6503;48.572;13.460;2023-02-25T05:49:41;6.15;;;2.72;;
12869;SDS011;6503;48.572;13.460;2023-02-25T05:52:08;6.63;;;3.17;;
12869;SDS011;6503;48.572;13.460;2023-02-25T05:54:35;7.05;;;3.47;;
12869;SDS011;6503;48.572;13.460;2023-02-25T05:57:03;6.93;;;3.78;;
12869;SDS011;6503;48.572;13.460;2023-02-25T05:59:30;7.05;;;3.13;;
12869;SDS011;6503;48.572;13.460;2023-02-25T06:01:57;7.03;;;2.70;;
12869;SDS011;6503;48.572;13.460;2023-02-25T06:04:24;9.20;;;3.75;;
12869;SDS011;6503;48.572;13.460;2023-02-25T06:06:53;6.07;;;2.95;;
12869;SDS011;6503;48.572;13.460;2023-02-25T06:09:20;9.68;;;3.25;;
12869;SDS011;6503;48.572;13.460;2023-02-25T06:11:47;9.05;;;3.50;;
12869;SDS011;6503;48.572;13.460;2023-02-25T06:14:14;10.27;;;3.33;;
12869;SDS011;6503;48.572;13.460;2023-02-25T06:16:43;5.22;;;2.70;;
12869;SDS011;6503;48.572;13.460;2023-02-25T06:19:10;5.97;;;3.00;;
12869;SDS011;6503;48.572;13.460;2023-02-25T06:21:38;6.68;;;3.63;;
12869;SDS011;6503;48.572;13.460;2023-02-25T06:24:08;8.43;;;2.83;;
12869;SDS011;6503;48.572;13.460;2023-02-25T06:26:35;7.68;;;3.00;;
12869;SDS011;6503;48.572;13.460;2023-02-25T06:29:07;4.38;;;2.53;;
12869;SDS011;6503;48.572;13.460;2023-02-25T06:31:34;5.38;;;2.80;;
12869;SDS011;6503;48.572;13.460;2023-02-25T06:34:02;6.20;;;2.92;;
12869;SDS011;6503;48.572;13.460;2023-02-25T06:36:29;10.07;;;3.42;;
12869;SDS011;6503;48.572;13.460;2023-02-25T06:38:58;3.75;;;2.80;;
12869;SDS011;6503;48.572;13.460;2023-02-25T06:41:27;4.93;;;2.42;;
12869;SDS011;6503;48.572;13.460;2023-02-25T06:43:54;6.45;;;2.92;;
12869;SDS011;6503;48.572;13.460;2023-02-25T06:46:22;5.15;;;2.78;;
12869;SDS011;6503;48.572;13.460;2023-02-25T06:48:50;6.70;;;2.60;;
12869;SDS011;6503;48.572;13.460;2023-02-25T06:51:19;6.47;;;2.15;;
12869;SDS011;6503;48.572;13.460;2023-02-25T06:53:46;4.65;;;2.22;;
12869;SDS011;6503;48.572;13.460;2023-02-25T06:56:14;7.57;;;2.08;;
12869;SDS011;6503;48.572;13.460;2023-02-25T06:58:45;3.47;;;1.70;;
12869;SDS011;6503;48.572;13.460;2023-02-25T07:01:13;2.75;;;1.70;;
12869;SDS011;6503;48.572;13.460;2023-02-25T07:03:42;2.30;;;1.67;;
12869;SDS011;6503;48.572;13.460;2023-02-25T07:06:09;6.25;;;2.15;;
12869;SDS011;6503;48.572;13.460;2023-02-25T07:08:38;5.55;;;1.90;;
12869;SDS011;6503;48.572;13.460;2023-02-25T07:11:11;4.18;;;2.22;;
12869;SDS011;6503;48.572;13.460;2023-02-25T07:13:39;5.50;;;2.58;;
12869;SDS011;6503;48.572;13.460;2023-02-25T07:16:08;5.40;;;2.20;;
12869;SDS011;6503;48.572;13.460;2023-02-25T07:18:35;7.63;;;2.70;;
12869;SDS011;6503;48.572;13.460;2023-02-25T07:21:03;7.15;;;2.50;;
12869;SDS011;6503;48.572;13.460;2023-02-25T07:23:30;5.00;;;2.10;;
12869;SDS011;6503;48.572;13.460;2023-02-25T07:26:00;6.45;;;2.35;;
12869;SDS011;6503;48.572;13.460;2023-02-25T07:28:28;6.03;;;2.85;;
12869;SDS011;6503;48.572;13.460;2023-02-25T07:30:55;7.18;;;3.42;;
12869;SDS011;6503;48.572;13.460;2023-02-25T07:33:27;4.40;;;2.00;;
12869;SDS011;6503;48.572;13.460;2023-02-25T07:35:55;4.50;;;2.38;;
12869;SDS011;6503;48.572;13.460;2023-02-25T07:38:22;5.20;;;2.60;;
12869;SDS011;6503;48.572;13.460;2023-02-25T07:40:50;5.82;;;2.60;;
12869;SDS011;6503;48.572;13.460;2023-02-25T07:43:17;5.90;;;2.50;;
12869;SDS011;6503;48.572;13.460;2023-02-25T07:45:44;4.45;;;1.80;;
12869;SDS011;6503;48.572;13.460;2023-02-25T07:48:14;5.00;;;2.33;;
12869;SDS011;6503;48.572;13.460;2023-02-25T07:50:43;5.75;;;2.45;;
12869;SDS011;6503;48.572;13.460;2023-02-25T07:53:10;7.47;;;2.22;;
12869;SDS011;6503;48.572;13.460;2023-02-25T07:55:40;4.97;;;2.28;;
12869;SDS011;6503;48.572;13.460;2023-02-25T07:58:08;4.25;;;2.10;;
12869;SDS011;6503;48.572;13.460;2023-02-25T08:00:36;3.97;;;2.35;;
12869;SDS011;6503;48.572;13.460;2023-02-25T08:03:04;4.50;;;2.45;;
12869;SDS011;6503;48.572;13.460;2023-02-25T08:05:32;9.32;;;2.53;;
12869;SDS011;6503;48.572;13.460;2023-02-25T08:08:01;5.60;;;2.30;;
12869;SDS011;6503;48.572;13.460;2023-02-25T08:10:28;4.75;;;3.13;;
12869;SDS011;6503;48.572;13.460;2023-02-25T08:12:55;2.70;;;1.77;;
12869;SDS011;6503;48.572;13.460;2023-02-25T08:15:22;6.00;;;2.03;;
12869;SDS011;6503;48.572;13.460;2023-02-25T08:17:49;5.10;;;1.77;;
12869;SDS011;6503;48.572;13.460;2023-02-25T08:20:17;6.15;;;1.85;;
12869;SDS011;6503;48.572;13.460;2023-02-25T08:22:44;4.10;;;1.70;;
12869;SDS011;6503;48.572;13.460;2023-02-25T08:25:13;2.70;;;1.60;;
12869;SDS011;6503;48.572;13.460;2023-02-25T08:27:39;3.42;;;1.23;;
12869;SDS011;6503;48.572;13.460;2023-02-25T08:30:08;1.75;;;1.20;;
12869;SDS011;6503;48.572;13.460;2023-02-25T08:32:37;3.22;;;1.52;;
12869;SDS011;6503;48.572;13.460;2023-02-25T08:35:06;5.47;;;1.70;;
12869;SDS011;6503;48.572;13.460;2023-02-25T08:37:35;8.18;;;1.70;;
12869;SDS011;6503;48.572;13.460;2023-02-25T08:40:02;5.28;;;1.60;;
12869;SDS011;6503;48.572;13.460;2023-02-25T08:42:36;3.95;;;1.27;;
12869;SDS011;6503;48.572;13.460;2023-02-25T08:45:04;2.53;;;1.45;;
12869;SDS011;6503;48.572;13.460;2023-02-25T08:47:32;3.25;;;1.27;;
12869;SDS011;6503;48.572;13.460;2023-02-25T08:49:59;2.42;;;1.58;;
12869;SDS011;6503;48.572;13.460;2023-02-25T08:52:26;3.75;;;1.60;;
12869;SDS011;6503;48.572;13.460;2023-02-25T08:54:57;5.57;;;1.52;;
12869;SDS011;6503;48.572;13.460;2023-02-25T08:57:25;3.03;;;1.38;;
12869;SDS011;6503;48.572;13.460;2023-02-25T08:59:55;3.50;;;1.67;;
12869;SDS011;6503;48.572;13.460;2023-02-25T09:02:22;4.15;;;2.13;;
12869;SDS011;6503;48.572;13.460;2023-02-25T09:04:49;5.45;;;1.73;;
12869;SDS011;6503;48.572;13.460;2023-02-25T09:07:17;3.58;;;1.60;;
12869;SDS011;6503;48.572;13.460;2023-02-25T09:09:44;5.55;;;2.00;;
12869;SDS011;6503;48.572;13.460;2023-02-25T09:12:11;4.88;;;2.10;;
12869;SDS011;6503;48.572;13.460;2023-02-25T09:14:38;4.18;;;1.73;;
12869;SDS011;6503;48.572;13.460;2023-02-25T09:17:07;3.92;;;1.88;;
12869;SDS011;6503;48.572;13.460;2023-02-25T09:19:34;5.90;;;1.75;;
12869;SDS011;6503;48.572;13.460;2023-02-25T09:22:03;4.20;;;1.55;;
12869;SDS011;6503;48.572;13.460;2023-02-25T09:24:30;4.88;;;2.45;;
12869;SDS011;6503;48.572;13.460;2023-02-25T09:26:58;4.32;;;1.73;;
12869;SDS011;6503;48.572;13.460;2023-02-25T09:29:25;4.70;;;2.00;;
12869;SDS011;6503;48.572;13.460;2023-02-25T09:31:52;7.22;;;2.33;;
12869;SDS011;6503;48.572;13.460;2023-02-25T09:34:21;5.85;;;2.00;;
12869;SDS011;6503;48.572;13.460;2023-02-25T09:36:48;8.40;;;2.17;;
12869;SDS011;6503;48.572;13.460;2023-02-25T09:39:15;4.15;;;2.10;;
12869;SDS011;6503;48.572;13.460;2023-02-25T09:41:44;6.65;;;2.20;;
12869;SDS011;6503;48.572;13.460;2023-02-25T09:44:15;5.47;;;2.63;;
12869;SDS011;6503;48.572;13.460;2023-02-25T09:46:46;5.95;;;2.17;;
12869;SDS011;6503;48.572;13.460;2023-02-25T09:49:17;4.65;;;1.75;;
12869;SDS011;6503;48.572;13.460;2023-02-25T09:51:52;4.95;;;2.28;;
12869;SDS011;6503;48.572;13.460;2023-02-25T09:54:26;3.92;;;1.80;;
12869;SDS011;6503;48.572;13.460;2023-02-25T09:57:00;3.58;;;2.00;;
12869;SDS011;6503;48.572;13.460;2023-02-25T09:59:29;4.53;;;1.60;;
12869;SDS011;6503;48.572;13.460;2023-02-25T10:01:58;5.60;;;2.40;;
12869;SDS011;6503;48.572;13.460;2023-02-25T10:04:32;6.55;;;2.03;;
12869;SDS011;6503;48.572;13.460;2023-02-25T10:07:13;6.22;;;2.25;;
12869;SDS011;6503;48.572;13.460;2023-02-25T10:09:47;4.50;;;1.60;;
12869;SDS011;6503;48.572;13.460;2023-02-25T10:12:20;4.20;;;1.75;;
12869;SDS011;6503;48.572;13.460;2023-02-25T10:17:54;2.63;;;1.40;;
12869;SDS011;6503;48.572;13.460;2023-02-25T10:20:45;2.42;;;1.23;;
12869;SDS011;6503;48.572;13.460;2023-02-25T10:23:25;4.05;;;2.20;;
12869;SDS011;6503;48.572;13.460;2023-02-25T10:26:03;3.05;;;1.45;;
12869;SDS011;6503;48.572;13.460;2023-02-25T10:28:37;2.70;;;1.30;;
12869;SDS011;6503;48.572;13.460;2023-02-25T10:31:08;3.85;;;1.48;;
12869;SDS011;6503;48.572;13.460;2023-02-25T10:33:40;3.72;;;1.50;;
12869;SDS011;6503;48.572;13.460;2023-02-25T10:36:13;3.50;;;1.67;;
12869;SDS011;6503;48.572;13.460;2023-02-25T10:38:43;2.85;;;1.63;;
12869;SDS011;6503;48.572;13.460;2023-02-25T10:41:11;5.75;;;1.67;;
12869;SDS011;6503;48.572;13.460;2023-02-25T10:43:40;3.45;;;1.45;;
12869;SDS011;6503;48.572;13.460;2023-02-25T10:46:10;4.88;;;1.33;;
12869;SDS011;6503;48.572;13.460;2023-02-25T10:48:41;3.28;;;1.40;;
12869;SDS011;6503;48.572;13.460;2023-02-25T10:51:23;1.95;;;0.90;;
12869;SDS011;6503;48.572;13.460;2023-02-25T10:54:03;3.95;;;1.25;;
12869;SDS011;6503;48.572;13.460;2023-02-25T10:59:07;3.38;;;1.40;;
12869;SDS011;6503;48.572;13.460;2023-02-25T11:01:48;2.22;;;1.20;;
12869;SDS011;6503;48.572;13.460;2023-02-25T11:04:17;2.50;;;1.38;;
12869;SDS011;6503;48.572;13.460;2023-02-25T11:06:47;6.18;;;1.48;;
12869;SDS011;6503;48.572;13.460;2023-02-25T11:09:28;2.08;;;1.10;;
12869;SDS011;6503;48.572;13.460;2023-02-25T11:12:00;2.35;;;1.30;;
12869;SDS011;6503;48.572;13.460;2023-02-25T11:14:36;5.97;;;1.50;;
12869;SDS011;6503;48.572;13.460;2023-02-25T11:17:05;2.55;;;1.52;;
12869;SDS011;6503;48.572;13.460;2023-02-25T11:19:37;2.90;;;1.20;;
12869;SDS011;6503;48.572;13.460;2023-02-25T11:22:09;2.10;;;1.13;;
12869;SDS011;6503;48.572;13.460;2023-02-25T11:24:56;7.18;;;1.90;;
12869;SDS011;6503;48.572;13.460;2023-02-25T11:27:29;3.92;;;1.60;;
12869;SDS011;6503;48.572;13.460;2023-02-25T11:30:02;4.38;;;1.88;;
12869;SDS011;6503;48.572;13.460;2023-02-25T11:32:32;6.32;;;1.40;;
12869;SDS011;6503;48.572;13.460;2023-02-25T11:35:01;5.57;;;1.88;;
12869;SDS011;6503;48.572;13.460;2023-02-25T11:37:35;4.28;;;1.58;;
12869;SDS011;6503;48.572;13.460;2023-02-25T11:40:18;6.65;;;1.90;;
12869;SDS011;6503;48.572;13.460;2023-02-25T11:43:04;3.35;;;1.52;;
12869;SDS011;6503;48.572;13.460;2023-02-25T11:45:49;5.32;;;2.00;;
12869;SDS011;6503;48.572;13.460;2023-02-25T11:48:20;4.85;;;1.45;;
12869;SDS011;6503;48.572;13.460;2023-02-25T11:50:54;4.70;;;1.77;;
12869;SDS011;6503;48.572;13.460;2023-02-25T11:53:30;4.47;;;1.50;;
12869;SDS011;6503;48.572;13.460;2023-02-25T11:56:11;3.47;;;1.63;;
12869;SDS011;6503;48.572;13.460;2023-02-25T11:58:47;4.00;;;1.35;;
12869;SDS011;6503;48.572;13.460;2023-02-25T12:01:31;4.00;;;1.70;;
12869;SDS011;6503;48.572;13.460;2023-02-25T12:04:09;5.07;;;1.90;;
12869;SDS011;6503;48.572;13.460;2023-02-25T12:06:56;5.68;;;1.60;;
12869;SDS011;6503;48.572;13.460;2023-02-25T12:09:43;4.75;;;1.67;;
12869;SDS011;6503;48.572;13.460;2023-02-25T12:12:27;4.05;;;1.77;;
12869;SDS011;6503;48.572;13.460;2023-02-25T12:15:16;8.02;;;1.83;;
12869;SDS011;6503;48.572;13.460;2023-02-25T12:18:23;2.22;;;1.20;;
12869;SDS011;6503;48.572;13.460;2023-02-25T12:21:21;2.95;;;1.45;;
12869;SDS011;6503;48.572;13.460;2023-02-25T12:24:11;3.65;;;1.40;;
12869;SDS011;6503;48.572;13.460;2023-02-25T12:27:04;3.47;;;1.45;;
12869;SDS011;6503;48.572;13.460;2023-02-25T12:30:01;3.65;;;1.48;;
12869;SDS011;6503;48.572;13.460;2023-02-25T12:32:48;3.28;;;1.10;;
12869;SDS011;6503;48.572;13.460;2023-02-25T12:38:22;5.63;;;1.70;;
12869;SDS011;6503;48.572;13.460;2023-02-25T12:41:32;4.45;;;1.65;;
12869;SDS011;6503;48.572;13.460;2023-02-25T12:47:37;4.32;;;1.50;;
12869;SDS011;6503;48.572;13.460;2023-02-25T12:50:37;3.80;;;1.27;;
12869;SDS011;6503;48.572;13.460;2023-02-25T12:53:22;4.18;;;1.30;;
12869;SDS011;6503;48.572;13.460;2023-02-25T12:56:03;5.50;;;1.42;;
12869;SDS011;6503;48.572;13.460;2023-02-25T12:58:47;3.47;;;1.55;;
12869;SDS011;6503;48.572;13.460;2023-02-25T13:01:41;2.97;;;1.40;;
12869;SDS011;6503;48.572;13.460;2023-02-25T13:07:29;3.13;;;1.10;;
12869;SDS011;6503;48.572;13.460;2023-02-25T13:10:20;4.03;;;1.20;;
12869;SDS011;6503;48.572;13.460;2023-02-25T13:13:08;5.00;;;1.35;;
12869;SDS011;6503;48.572;13.460;2023-02-25T13:15:54;2.88;;;1.40;;
12869;SDS011;6503;48.572;13.460;2023-02-25T13:18:33;3.13;;;1.50;;
12869;SDS011;6503;48.572;13.460;2023-02-25T13:24:05;4.28;;;1.23;;
12869;SDS011;6503;48.572;13.460;2023-02-25T13:26:54;2.33;;;1.30;;
12869;SDS011;6503;48.572;13.460;2023-02-25T13:29:49;3.55;;;1.42;;
12869;SDS011;6503;48.572;13.460;2023-02-25T13:32:45;2.28;;;1.13;;
12869;SDS011;6503;48.572;13.460;2023-02-25T13:35:28;2.92;;;1.13;;
12869;SDS011;6503;48.572;13.460;2023-02-25T13:38:07;2.83;;;1.55;;
12869;SDS011;6503;48.572;13.460;2023-02-25T13:40:57;3.67;;;1.30;;
12869;SDS011;6503;48.572;13.460;2023-02-25T13:49:50;3.33;;;1.25;;
12869;SDS011;6503;48.572;13.460;2023-02-25T13:52:33;4.30;;;1.40;;
12869;SDS011;6503;48.572;13.460;2023-02-25T13:55:15;4.03;;;1.10;;
12869;SDS011;6503;48.572;13.460;2023-02-25T13:58:23;3.97;;;1.30;;
12869;SDS011;6503;48.572;13.460;2023-02-25T14:10:09;3.35;;;1.27;;
12869;SDS011;6503;48.572;13.460;2023-02-25T14:12:49;3.08;;;1.50;;
12869;SDS011;6503;48.572;13.460;2023-02-25T14:15:37;3.63;;;1.42;;
12869;SDS011;6503;48.572;13.460;2023-02-25T14:18:20;3.13;;;1.42;;
12869;SDS011;6503;48.572;13.460;2023-02-25T14:21:04;4.53;;;1.40;;
12869;SDS011;6503;48.572;13.460;2023-02-25T14:23:45;3.10;;;1.40;;
12869;SDS011;6503;48.572;13.460;2023-02-25T14:26:22;3.78;;;1.55;;
12869;SDS011;6503;48.572;13.460;2023-02-25T14:29:01;3.72;;;1.33;;
12869;SDS011;6503;48.572;13.460;2023-02-25T14:31:40;4.35;;;1.70;;
12869;SDS011;6503;48.572;13.460;2023-02-25T14:34:26;4.93;;;1.48;;
12869;SDS011;6503;48.572;13.460;2023-02-25T14:37:19;6.57;;;1.63;;
12869;SDS011;6503;48.572;13.460;2023-02-25T14:40:06;2.75;;;1.40;;
12869;SDS011;6503;48.572;13.460;2023-02-25T14:45:49;2.83;;;1.50;;
12869;SDS011;6503;48.572;13.460;2023-02-25T14:48:20;2.13;;;1.52;;
12869;SDS011;6503;48.572;13.460;2023-02-25T14:50:53;3.75;;;1.55;;
12869;SDS011;6503;48.572;13.460;2023-02-25T14:56:50;4.18;;;1.88;;
12869;SDS011;6503;48.572;13.460;2023-02-25T14:59:41;3.58;;;1.92;;
12869;SDS011;6503;48.572;13.460;2023-02-25T15:02:27;6.38;;;1.98;;
12869;SDS011;6503;48.572;13.460;2023-02-25T15:08:03;2.72;;;1.70;;
12869;SDS011;6503;48.572;13.460;2023-02-25T15:10:57;3.22;;;1.42;;
12869;SDS011;6503;48.572;13.460;2023-02-25T15:13:48;2.25;;;1.20;;
12869;SDS011;6503;48.572;13.460;2023-02-25T15:16:45;3.80;;;1.10;;
12869;SDS011;6503;48.572;13.460;2023-02-25T15:19:41;2.03;;;1.25;;
12869;SDS011;6503;48.572;13.460;2023-02-25T15:22:24;3.30;;;0.80;;
12869;SDS011;6503;48.572;13.460;2023-02-25T15:24:53;2.55;;;0.90;;
12869;SDS011;6503;48.572;13.460;2023-02-25T15:27:55;4.00;;;1.10;;
12869;SDS011;6503;48.572;13.460;2023-02-25T15:30:25;3.22;;;1.33;;
12869;SDS011;6503;48.572;13.460;2023-02-25T15:33:14;3.53;;;1.15;;
12869;SDS011;6503;48.572;13.460;2023-02-25T15:35:53;2.13;;;1.52;;
12869;SDS011;6503;48.572;13.460;2023-02-25T15:38:37;4.70;;;1.38;;
12869;SDS011;6503;48.572;13.460;2023-02-25T15:49:55;4.13;;;2.10;;
12869;SDS011;6503;48.572;13.460;2023-02-25T15:55:34;2.10;;;1.40;;
12869;SDS011;6503;48.572;13.460;2023-02-25T16:01:25;3.67;;;1.40;;
12869;SDS011;6503;48.572;13.460;2023-02-25T16:07:14;5.05;;;1.50;;
12869;SDS011;6503;48.572;13.460;2023-02-25T16:09:47;2.92;;;1.30;;
12869;SDS011;6503;48.572;13.460;2023-02-25T16:12:20;1.13;;;0.90;;
12869;SDS011;6503;48.572;13.460;2023-02-25T16:14:48;1.45;;;0.73;;
12869;SDS011;6503;48.572;13.460;2023-02-25T16:17:18;1.77;;;0.80;;
12869;SDS011;6503;48.572;13.460;2023-02-25T16:19:50;1.90;;;1.27;;
12869;SDS011;6503;48.572;13.460;2023-02-25T16:22:23;2.28;;;1.10;;
12869;SDS011;6503;48.572;13.460;2023-02-25T16:24:52;1.40;;;0.90;;
12869;SDS011;6503;48.572;13.460;2023-02-25T16:27:25;2.50;;;1.15;;
12869;SDS011;6503;48.572;13.460;2023-02-25T16:30:06;2.25;;;1.30;;
12869;SDS011;6503;48.572;13.460;2023-02-25T16:32:41;3.45;;;1.33;;